Time;durP1;ratioP1;P1;durP2;ratioP2;P2;SDS_P1;SDS_P2;PMS_P1;PMS_P2;Temp;Humidity;BMP_temperature;BMP_pressure;BME280_temperature;BME280_humidity;BME280_pressure;Samples;Min_cycle;Max_cycle;Signal;HPM_P1;HPM_P2
2022/05/06 00:01:27;;;;;;;11.20;7.70;;;;;;;;;;5107614;28;20024;-54
2022/05/06 00:03:53;;;;;;;14.07;6.90;;;;;;;;;;5109991;28;20036;-51
2022/05/06 00:06:23;;;;;;;15.40;7.05;;;;;;;;;;5111558;28;20193;-53
2022/05/06 00:08:49;;;;;;;11.57;6.90;;;;;;;;;;5111629;28;20020;-52
2022/05/06 00:11:15;;;;;;;11.60;7.32;;;;;;;;;;5111466;28;20544;-52
2022/05/06 00:13:41;;;;;;;13.73;7.38;;;;;;;;;;5111260;28;20492;-51
2022/05/06 00:16:08;;;;;;;12.13;5.72;;;;;;;;;;5110897;28;20100;-53
2022/05/06 00:18:35;;;;;;;12.63;6.72;;;;;;;;;;5110635;28;20039;-54
2022/05/06 00:21:01;;;;;;;9.45;6.40;;;;;;;;;;5110818;28;20032;-51
2022/05/06 00:23:27;;;;;;;11.85;7.05;;;;;;;;;;5110421;28;20051;-53
2022/05/06 00:25:53;;;;;;;14.18;7.57;;;;;;;;;;5110401;28;20101;-54
2022/05/06 00:28:21;;;;;;;12.55;6.25;;;;;;;;;;5110425;28;20024;-53
2022/05/06 00:30:47;;;;;;;13.35;7.28;;;;;;;;;;5110916;28;20093;-55
2022/05/06 00:33:13;;;;;;;15.40;7.93;;;;;;;;;;5106429;27;20090;-53
2022/05/06 00:35:43;;;;;;;12.77;7.55;;;;;;;;;;5109877;28;20401;-54
2022/05/06 00:38:09;;;;;;;12.90;7.18;;;;;;;;;;5109737;28;20079;-55
2022/05/06 00:40:35;;;;;;;11.20;6.57;;;;;;;;;;5110588;28;20074;-50
2022/05/06 00:43:01;;;;;;;11.50;6.85;;;;;;;;;;5110562;28;20473;-54
2022/05/06 00:45:32;;;;;;;13.75;8.05;;;;;;;;;;5111101;28;20070;-53
2022/05/06 00:47:59;;;;;;;12.32;7.55;;;;;;;;;;5110904;28;20027;-54
2022/05/06 00:50:25;;;;;;;15.32;7.28;;;;;;;;;;5110651;28;20043;-53
2022/05/06 00:52:51;;;;;;;11.10;7.13;;;;;;;;;;5110233;28;20032;-53
2022/05/06 00:55:17;;;;;;;14.23;7.57;;;;;;;;;;5110653;28;20157;-53
2022/05/06 00:57:43;;;;;;;12.10;6.75;;;;;;;;;;5109949;28;20110;-50
2022/05/06 01:00:18;;;;;;;11.43;7.32;;;;;;;;;;5110281;28;20149;-52
2022/05/06 01:02:45;;;;;;;11.30;6.93;;;;;;;;;;5110441;28;20838;-54
2022/05/06 01:05:12;;;;;;;12.52;7.43;;;;;;;;;;5110014;28;20115;-54
2022/05/06 01:07:39;;;;;;;14.63;8.35;;;;;;;;;;5096150;28;20023;-55
2022/05/06 01:10:07;;;;;;;10.45;6.40;;;;;;;;;;5110082;27;20157;-51
2022/05/06 01:12:33;;;;;;;10.82;7.40;;;;;;;;;;5108628;28;20058;-52
2022/05/06 01:15:00;;;;;;;11.25;7.57;;;;;;;;;;5110359;28;20102;-54
2022/05/06 01:17:26;;;;;;;13.35;7.78;;;;;;;;;;5110207;28;20036;-53
2022/05/06 01:19:52;;;;;;;11.23;7.57;;;;;;;;;;5109468;28;20393;-51
2022/05/06 01:22:19;;;;;;;11.85;7.72;;;;;;;;;;5110522;28;20521;-50
2022/05/06 01:24:45;;;;;;;16.83;9.20;;;;;;;;;;5106702;28;20435;-56
2022/05/06 01:27:20;;;;;;;13.20;8.23;;;;;;;;;;5110104;28;20608;-52
2022/05/06 01:29:46;;;;;;;11.95;7.22;;;;;;;;;;5109628;28;20464;-54
2022/05/06 01:32:13;;;;;;;13.13;7.93;;;;;;;;;;5109904;28;20197;-52
2022/05/06 01:34:40;;;;;;;13.27;8.10;;;;;;;;;;5109724;28;20568;-54
2022/05/06 01:37:07;;;;;;;11.13;7.90;;;;;;;;;;5109673;28;20569;-50
2022/05/06 01:39:37;;;;;;;13.48;8.35;;;;;;;;;;5106932;28;20122;-53
2022/05/06 01:42:05;;;;;;;13.77;8.50;;;;;;;;;;5103622;28;20111;-49
2022/05/06 01:44:35;;;;;;;15.00;8.70;;;;;;;;;;5095771;28;20028;-53
2022/05/06 01:47:03;;;;;;;13.43;7.18;;;;;;;;;;5108304;28;20435;-50
2022/05/06 01:49:30;;;;;;;12.45;7.90;;;;;;;;;;5109463;28;20160;-51
2022/05/06 01:51:58;;;;;;;14.05;8.77;;;;;;;;;;5108819;28;20028;-54
2022/05/06 01:54:25;;;;;;;14.88;9.10;;;;;;;;;;5109637;28;20027;-55
2022/05/06 01:56:51;;;;;;;13.60;8.80;;;;;;;;;;5108473;28;20074;-55
2022/05/06 01:59:18;;;;;;;11.30;8.45;;;;;;;;;;5109527;28;20051;-52
2022/05/06 02:01:44;;;;;;;11.73;8.30;;;;;;;;;;5107832;28;20024;-55
2022/05/06 02:07:00;;;;;;;12.90;8.73;;;;;;;;;;5088739;28;20050;-54
2022/05/06 02:09:26;;;;;;;14.15;8.57;;;;;;;;;;5109395;28;20027;-53
2022/05/06 02:11:52;;;;;;;11.05;8.00;;;;;;;;;;5100044;28;20999;-52
2022/05/06 02:14:19;;;;;;;14.60;9.10;;;;;;;;;;5089083;28;20036;-53
2022/05/06 02:16:45;;;;;;;14.13;8.75;;;;;;;;;;5105603;28;20042;-50
2022/05/06 02:19:11;;;;;;;15.38;9.68;;;;;;;;;;5088870;28;20032;-54
2022/05/06 02:21:37;;;;;;;16.80;9.20;;;;;;;;;;5103085;28;20039;-53
2022/05/06 02:24:03;;;;;;;15.32;8.98;;;;;;;;;;5108962;27;20027;-50
2022/05/06 02:26:30;;;;;;;12.60;8.20;;;;;;;;;;5108409;28;20032;-52
2022/05/06 02:28:56;;;;;;;13.10;8.90;;;;;;;;;;5109031;28;20028;-53
2022/05/06 02:34:06;;;;;;;13.90;9.07;;;;;;;;;;5109217;28;20060;-55
2022/05/06 02:36:33;;;;;;;13.18;9.32;;;;;;;;;;5108826;28;20494;-52
2022/05/06 02:38:59;;;;;;;14.98;9.50;;;;;;;;;;5108206;28;20029;-53
2022/05/06 02:41:25;;;;;;;11.82;8.15;;;;;;;;;;5108558;28;20478;-55
2022/05/06 02:43:51;;;;;;;15.35;9.13;;;;;;;;;;5107520;28;20062;-53
2022/05/06 02:46:18;;;;;;;13.43;9.25;;;;;;;;;;5092477;28;20035;-53
2022/05/06 02:48:44;;;;;;;13.90;9.55;;;;;;;;;;5107206;28;20042;-51
2022/05/06 02:51:13;;;;;;;14.57;9.45;;;;;;;;;;5108889;28;20032;-51
2022/05/06 02:53:39;;;;;;;13.05;9.25;;;;;;;;;;5108687;28;20400;-51
2022/05/06 02:56:05;;;;;;;14.18;10.30;;;;;;;;;;5108923;28;20081;-55
2022/05/06 02:58:31;;;;;;;12.07;8.80;;;;;;;;;;5108280;28;20106;-54
2022/05/06 03:00:57;;;;;;;13.45;9.63;;;;;;;;;;5108608;28;20374;-54
2022/05/06 03:03:23;;;;;;;12.55;8.40;;;;;;;;;;5099719;28;20099;-54
2022/05/06 03:05:49;;;;;;;13.80;9.73;;;;;;;;;;5092260;28;20071;-51
2022/05/06 03:08:15;;;;;;;12.80;9.43;;;;;;;;;;5107067;28;20627;-53
2022/05/06 03:10:41;;;;;;;13.10;8.93;;;;;;;;;;5112807;28;20122;-52
2022/05/06 03:13:07;;;;;;;12.40;8.43;;;;;;;;;;5112404;28;20023;-54
2022/05/06 03:15:35;;;;;;;12.25;8.68;;;;;;;;;;5112687;28;20114;-54
2022/05/06 03:18:01;;;;;;;13.77;9.70;;;;;;;;;;5110892;28;20062;-52
2022/05/06 03:20:28;;;;;;;13.65;8.80;;;;;;;;;;5112517;28;20031;-52
2022/05/06 03:22:54;;;;;;;13.77;9.32;;;;;;;;;;5111696;28;20050;-54
2022/05/06 03:25:20;;;;;;;12.18;9.43;;;;;;;;;;5112011;28;20477;-51
2022/05/06 03:30:37;;;;;;;14.38;9.95;;;;;;;;;;5103380;28;20117;-53
2022/05/06 03:33:03;;;;;;;13.88;9.50;;;;;;;;;;5111890;28;20043;-52
2022/05/06 03:35:30;;;;;;;13.85;10.05;;;;;;;;;;5111847;28;20080;-54
2022/05/06 03:37:56;;;;;;;14.77;9.65;;;;;;;;;;5112239;28;20023;-55
2022/05/06 03:40:22;;;;;;;14.73;9.90;;;;;;;;;;5111848;28;20062;-55
2022/05/06 03:42:49;;;;;;;13.23;9.50;;;;;;;;;;5093122;28;20462;-52
2022/05/06 03:45:15;;;;;;;14.90;9.02;;;;;;;;;;5111623;28;20389;-53
2022/05/06 03:47:41;;;;;;;20.05;10.60;;;;;;;;;;5100499;28;20039;-51
2022/05/06 03:52:52;;;;;;;12.20;9.48;;;;;;;;;;5112469;28;20110;-49
2022/05/06 03:55:19;;;;;;;11.68;8.65;;;;;;;;;;5111688;28;20098;-51
2022/05/06 03:57:45;;;;;;;11.75;8.95;;;;;;;;;;5110865;28;20032;-54
2022/05/06 04:00:11;;;;;;;11.13;7.97;;;;;;;;;;5111480;28;20465;-51
2022/05/06 04:02:37;;;;;;;11.70;9.48;;;;;;;;;;5111939;28;20049;-51
2022/05/06 04:05:04;;;;;;;12.10;8.13;;;;;;;;;;5111313;28;20485;-52
2022/05/06 04:07:30;;;;;;;12.15;8.65;;;;;;;;;;5111327;28;20027;-54
2022/05/06 04:09:56;;;;;;;12.52;9.50;;;;;;;;;;5110568;28;20028;-53
2022/05/06 04:12:23;;;;;;;10.68;8.25;;;;;;;;;;5111722;28;20032;-54
2022/05/06 04:14:49;;;;;;;11.10;8.48;;;;;;;;;;5109876;28;20024;-52
2022/05/06 04:17:17;;;;;;;12.30;8.73;;;;;;;;;;5111593;28;20027;-53
2022/05/06 04:25:16;;;;;;;11.07;7.75;;;;;;;;;;5110893;28;20076;-52
2022/05/06 04:27:43;;;;;;;11.13;8.52;;;;;;;;;;5111986;28;20035;-53
2022/05/06 04:30:09;;;;;;;11.20;8.40;;;;;;;;;;5111244;28;20057;-55
2022/05/06 04:32:35;;;;;;;11.32;7.88;;;;;;;;;;5111586;28;20134;-54
2022/05/06 04:35:04;;;;;;;11.60;7.97;;;;;;;;;;5111204;28;20095;-54
2022/05/06 04:37:30;;;;;;;12.25;8.38;;;;;;;;;;5099905;28;20011;-50
2022/05/06 04:39:57;;;;;;;10.18;7.18;;;;;;;;;;5109862;28;20042;-51
2022/05/06 04:42:23;;;;;;;12.57;7.75;;;;;;;;;;5110781;28;20063;-52
2022/05/06 04:44:49;;;;;;;13.13;8.65;;;;;;;;;;5095208;28;20100;-54
2022/05/06 04:47:15;;;;;;;10.55;7.88;;;;;;;;;;5110903;28;20024;-53
2022/05/06 04:49:41;;;;;;;10.02;7.30;;;;;;;;;;5111392;27;20036;-54
2022/05/06 04:52:08;;;;;;;10.02;7.40;;;;;;;;;;5110158;28;20438;-51
2022/05/06 04:54:34;;;;;;;11.25;7.97;;;;;;;;;;5110184;27;20098;-51
2022/05/06 04:57:00;;;;;;;13.30;9.07;;;;;;;;;;5110852;28;20027;-53
2022/05/06 04:59:26;;;;;;;15.98;11.48;;;;;;;;;;5110590;28;20024;-53
2022/05/06 05:01:52;;;;;;;14.52;9.70;;;;;;;;;;5109989;28;20514;-52
2022/05/06 05:04:18;;;;;;;15.63;9.70;;;;;;;;;;5110908;28;20062;-50
2022/05/06 05:06:45;;;;;;;11.63;9.25;;;;;;;;;;5110403;28;20450;-52
2022/05/06 05:09:11;;;;;;;12.63;9.18;;;;;;;;;;5109313;28;20432;-49
2022/05/06 05:11:37;;;;;;;14.88;9.73;;;;;;;;;;5110364;28;20114;-53
2022/05/06 05:14:06;;;;;;;14.57;9.20;;;;;;;;;;5109956;28;20104;-52
2022/05/06 05:16:33;;;;;;;14.85;10.18;;;;;;;;;;5110699;28;20019;-51
2022/05/06 05:18:59;;;;;;;13.13;9.00;;;;;;;;;;5110340;28;20477;-48
2022/05/06 05:21:25;;;;;;;12.27;9.05;;;;;;;;;;5110152;28;20106;-52
2022/05/06 05:23:57;;;;;;;11.88;8.75;;;;;;;;;;5109388;28;20031;-51
2022/05/06 05:26:25;;;;;;;11.13;9.23;;;;;;;;;;5091703;28;20550;-53
2022/05/06 05:28:51;;;;;;;11.23;8.18;;;;;;;;;;5109847;28;20486;-54
2022/05/06 05:31:17;;;;;;;10.50;8.60;;;;;;;;;;5109389;28;20023;-49
2022/05/06 05:33:43;;;;;;;13.52;9.75;;;;;;;;;;5109845;28;20894;-51
2022/05/06 05:36:09;;;;;;;10.93;8.88;;;;;;;;;;5109743;28;20028;-51
2022/05/06 05:38:35;;;;;;;11.50;8.93;;;;;;;;;;5108861;28;20118;-52
2022/05/06 05:41:01;;;;;;;16.00;8.82;;;;;;;;;;5109666;28;20125;-53
2022/05/06 05:48:57;;;;;;;13.90;8.93;;;;;;;;;;5107373;28;20386;-52
2022/05/06 05:51:23;;;;;;;9.82;8.10;;;;;;;;;;5109456;28;20525;-53
2022/05/06 05:53:49;;;;;;;13.52;9.13;;;;;;;;;;5105510;28;20525;-53
2022/05/06 05:56:15;;;;;;;11.55;9.15;;;;;;;;;;5109517;28;20122;-50
2022/05/06 05:58:42;;;;;;;13.32;8.38;;;;;;;;;;5109713;28;20129;-52
2022/05/06 06:01:08;;;;;;;12.20;9.55;;;;;;;;;;5106581;28;20111;-53
2022/05/06 06:03:34;;;;;;;20.20;9.80;;;;;;;;;;5104801;28;20543;-53
2022/05/06 06:06:00;;;;;;;15.35;9.90;;;;;;;;;;5109567;28;20038;-53
2022/05/06 06:08:27;;;;;;;10.85;7.80;;;;;;;;;;5106334;28;20733;-54
2022/05/06 06:10:54;;;;;;;13.27;9.13;;;;;;;;;;5109184;28;20038;-53
2022/05/06 06:13:21;;;;;;;18.42;9.30;;;;;;;;;;5108796;28;20562;-53
2022/05/06 06:15:47;;;;;;;18.60;8.10;;;;;;;;;;5097524;28;20051;-54
2022/05/06 06:18:15;;;;;;;16.17;7.85;;;;;;;;;;5109370;28;20027;-53
2022/05/06 06:20:41;;;;;;;14.90;7.82;;;;;;;;;;5109390;28;20032;-52
2022/05/06 06:23:07;;;;;;;24.80;9.02;;;;;;;;;;5107664;28;20027;-52
2022/05/06 06:25:34;;;;;;;21.27;9.32;;;;;;;;;;5108700;28;20545;-55
2022/05/06 06:28:00;;;;;;;22.25;8.68;;;;;;;;;;5109238;28;20024;-54
2022/05/06 06:30:26;;;;;;;19.05;8.98;;;;;;;;;;5108452;28;20964;-54
2022/05/06 06:32:52;;;;;;;21.10;8.77;;;;;;;;;;5108849;28;20482;-54
2022/05/06 06:35:22;;;;;;;16.75;8.13;;;;;;;;;;5108548;28;20489;-54
2022/05/06 06:37:48;;;;;;;15.90;7.75;;;;;;;;;;5106894;28;20063;-53
2022/05/06 06:40:15;;;;;;;20.20;7.85;;;;;;;;;;5106043;28;20024;-52
2022/05/06 06:42:42;;;;;;;23.08;8.30;;;;;;;;;;5109208;28;20086;-52
2022/05/06 06:45:09;;;;;;;23.48;7.63;;;;;;;;;;5106294;28;20097;-52
2022/05/06 06:47:35;;;;;;;33.33;14.00;;;;;;;;;;5103499;28;20035;-56
2022/05/06 06:50:02;;;;;;;24.10;9.70;;;;;;;;;;5102744;28;20077;-54
2022/05/06 06:52:28;;;;;;;27.83;10.82;;;;;;;;;;5104739;28;20031;-52
2022/05/06 06:54:54;;;;;;;21.98;9.73;;;;;;;;;;5105650;28;20530;-54
2022/05/06 06:57:20;;;;;;;24.83;10.75;;;;;;;;;;5107190;28;20035;-56
2022/05/06 06:59:47;;;;;;;17.10;9.27;;;;;;;;;;5107454;28;20035;-55
2022/05/06 07:02:13;;;;;;;24.60;8.40;;;;;;;;;;5107669;28;20093;-53
2022/05/06 07:04:39;;;;;;;21.83;9.05;;;;;;;;;;5105365;28;20031;-51
2022/05/06 07:12:35;;;;;;;15.60;8.95;;;;;;;;;;5092425;28;20173;-54
2022/05/06 07:15:02;;;;;;;18.13;9.65;;;;;;;;;;5098549;28;20122;-54
2022/05/06 07:17:29;;;;;;;23.45;9.35;;;;;;;;;;5105233;28;20103;-54
2022/05/06 07:19:55;;;;;;;24.92;10.07;;;;;;;;;;5103675;28;20493;-54
2022/05/06 07:22:21;;;;;;;22.23;10.30;;;;;;;;;;5100310;28;20430;-56
2022/05/06 07:24:47;;;;;;;23.05;9.63;;;;;;;;;;5093296;28;20652;-51
2022/05/06 07:27:13;;;;;;;26.02;9.35;;;;;;;;;;5105131;28;20043;-54
2022/05/06 07:29:40;;;;;;;28.75;9.85;;;;;;;;;;5107289;28;20465;-53
2022/05/06 07:32:06;;;;;;;22.23;9.77;;;;;;;;;;5106084;28;20143;-55
2022/05/06 07:34:32;;;;;;;25.25;10.88;;;;;;;;;;5104619;28;20047;-51
2022/05/06 07:36:58;;;;;;;21.40;9.98;;;;;;;;;;5102540;28;20120;-55
2022/05/06 07:39:25;;;;;;;17.30;8.98;;;;;;;;;;5106144;28;20458;-54
2022/05/06 07:41:51;;;;;;;23.60;8.48;;;;;;;;;;5100387;28;20028;-52
2022/05/06 07:44:17;;;;;;;18.17;9.50;;;;;;;;;;5098945;28;20024;-53
2022/05/06 07:46:43;;;;;;;21.63;9.60;;;;;;;;;;5104731;28;20035;-55
2022/05/06 07:49:10;;;;;;;26.33;10.48;;;;;;;;;;5107504;28;20032;-55
2022/05/06 07:51:36;;;;;;;19.40;10.38;;;;;;;;;;5109322;27;20024;-55
2022/05/06 07:54:02;;;;;;;18.77;9.93;;;;;;;;;;5110451;28;20038;-50
2022/05/06 07:56:31;;;;;;;20.38;7.97;;;;;;;;;;5110541;28;20023;-52
2022/05/06 07:58:57;;;;;;;18.13;8.23;;;;;;;;;;5109663;27;20024;-53
2022/05/06 08:06:54;;;;;;;19.27;7.63;;;;;;;;;;5110137;28;20069;-52
2022/05/06 08:09:23;;;;;;;29.08;8.00;;;;;;;;;;5109171;28;20069;-53
2022/05/06 08:11:49;;;;;;;23.80;8.23;;;;;;;;;;5110838;28;20028;-54
2022/05/06 08:14:16;;;;;;;20.10;8.05;;;;;;;;;;5111594;28;20022;-52
2022/05/06 08:16:43;;;;;;;21.05;9.68;;;;;;;;;;5112040;28;20035;-53
2022/05/06 08:19:09;;;;;;;33.10;9.82;;;;;;;;;;5109621;28;20035;-53
2022/05/06 08:21:35;;;;;;;16.27;7.35;;;;;;;;;;5111710;28;20138;-55
2022/05/06 08:24:01;;;;;;;18.35;7.97;;;;;;;;;;5095469;28;20020;-51
2022/05/06 08:26:27;;;;;;;25.63;8.18;;;;;;;;;;5098633;28;20035;-51
2022/05/06 08:28:53;;;;;;;23.75;7.57;;;;;;;;;;5104266;28;20458;-54
2022/05/06 08:31:20;;;;;;;24.13;8.15;;;;;;;;;;5110001;28;20485;-55
2022/05/06 08:33:47;;;;;;;17.20;6.80;;;;;;;;;;5110743;28;20024;-53
2022/05/06 08:36:13;;;;;;;29.35;15.63;;;;;;;;;;5111486;28;20099;-53
2022/05/06 08:38:39;;;;;;;23.55;15.45;;;;;;;;;;5109884;28;20076;-52
2022/05/06 08:41:06;;;;;;;23.23;15.80;;;;;;;;;;5110448;28;20453;-54
2022/05/06 08:43:32;;;;;;;24.30;16.38;;;;;;;;;;5109643;28;20034;-56
2022/05/06 08:51:36;;;;;;;19.02;14.73;;;;;;;;;;5107403;28;20817;-55
2022/05/06 08:54:02;;;;;;;20.95;14.75;;;;;;;;;;5099995;28;20556;-50
2022/05/06 08:56:29;;;;;;;19.15;13.85;;;;;;;;;;5099851;28;20027;-50
2022/05/06 08:58:55;;;;;;;19.77;13.02;;;;;;;;;;5101442;28;20062;-53
2022/05/06 09:01:22;;;;;;;20.70;13.43;;;;;;;;;;5099084;28;20904;-50
2022/05/06 09:03:48;;;;;;;18.95;13.95;;;;;;;;;;5101413;28;20196;-51
2022/05/06 09:06:18;;;;;;;18.45;13.10;;;;;;;;;;5100352;28;20379;-50
2022/05/06 09:08:45;;;;;;;20.33;13.43;;;;;;;;;;5098550;28;20053;-52
2022/05/06 09:11:11;;;;;;;19.92;13.35;;;;;;;;;;5099477;27;20103;-52
2022/05/06 09:13:38;;;;;;;22.08;12.32;;;;;;;;;;5099681;28;20092;-51
2022/05/06 09:19:13;;;;;;;19.83;12.88;;;;;;;;;;5102664;28;20042;-50
2022/05/06 09:21:41;;;;;;;16.55;11.93;;;;;;;;;;5099359;28;20099;-49
2022/05/06 09:24:20;;;;;;;17.45;13.23;;;;;;;;;;5098982;28;20115;-51
2022/05/06 09:27:18;;;;;;;18.25;11.93;;;;;;;;;;5100964;28;20124;-50
2022/05/06 09:29:46;;;;;;;22.08;14.43;;;;;;;;;;5078966;28;20134;-53
2022/05/06 09:32:13;;;;;;;16.10;12.90;;;;;;;;;;5096404;28;20073;-50
2022/05/06 09:34:40;;;;;;;24.58;14.07;;;;;;;;;;5099053;28;20680;-49
2022/05/06 09:37:06;;;;;;;21.48;14.45;;;;;;;;;;5096397;28;20070;-51
2022/05/06 09:39:32;;;;;;;18.55;13.57;;;;;;;;;;5101141;27;20042;-50
2022/05/06 09:42:03;;;;;;;20.92;13.55;;;;;;;;;;5099429;28;20393;-53
2022/05/06 09:44:29;;;;;;;20.80;14.35;;;;;;;;;;5099369;27;20378;-54
2022/05/06 09:47:15;;;;;;;18.10;13.73;;;;;;;;;;5101314;27;20035;-55
2022/05/06 09:49:42;;;;;;;18.48;13.80;;;;;;;;;;5104396;28;20035;-54
2022/05/06 09:52:09;;;;;;;24.27;12.38;;;;;;;;;;5102350;28;20281;-55
2022/05/06 09:54:35;;;;;;;23.02;12.70;;;;;;;;;;5108493;28;20024;-46
2022/05/06 09:57:06;;;;;;;21.15;13.13;;;;;;;;;;5108610;28;20060;-53
2022/05/06 09:59:33;;;;;;;25.33;13.30;;;;;;;;;;5087168;28;20027;-53
2022/05/06 10:02:00;;;;;;;18.23;11.98;;;;;;;;;;5102377;28;20106;-54
2022/05/06 10:04:27;;;;;;;18.52;11.95;;;;;;;;;;5092008;28;20036;-50
2022/05/06 10:06:56;;;;;;;19.98;13.25;;;;;;;;;;5099256;28;20726;-51
2022/05/06 10:09:23;;;;;;;22.63;18.40;;;;;;;;;;5107703;28;20027;-54
2022/05/06 10:11:54;;;;;;;26.05;15.25;;;;;;;;;;5106734;28;20481;-55
2022/05/06 10:14:20;;;;;;;15.60;12.05;;;;;;;;;;5107521;28;20031;-54
2022/05/06 10:16:47;;;;;;;14.75;12.90;;;;;;;;;;5105453;28;20032;-54
2022/05/06 10:19:33;;;;;;;15.70;12.57;;;;;;;;;;5107112;28;20098;-51
2022/05/06 10:21:59;;;;;;;14.23;12.27;;;;;;;;;;5107531;28;20015;-54
2022/05/06 10:24:37;;;;;;;14.07;11.50;;;;;;;;;;5106976;28;20383;-53
2022/05/06 10:27:21;;;;;;;17.05;12.13;;;;;;;;;;5105301;28;20760;-49
2022/05/06 10:32:59;;;;;;;16.42;12.85;;;;;;;;;;5103785;28;20108;-51
2022/05/06 10:35:38;;;;;;;18.77;13.13;;;;;;;;;;5106094;28;20778;-52
2022/05/06 10:38:23;;;;;;;16.35;12.23;;;;;;;;;;5108110;28;20028;-54
2022/05/06 10:40:49;;;;;;;14.07;11.05;;;;;;;;;;5108299;28;20027;-54
2022/05/06 10:43:34;;;;;;;11.60;10.40;;;;;;;;;;5105587;28;20038;-53
2022/05/06 10:46:00;;;;;;;13.20;9.68;;;;;;;;;;5106829;28;20123;-53
2022/05/06 10:48:26;;;;;;;13.70;9.75;;;;;;;;;;5107797;28;20102;-49
2022/05/06 10:50:52;;;;;;;12.07;10.73;;;;;;;;;;5107840;28;20452;-49
2022/05/06 10:53:34;;;;;;;12.45;10.02;;;;;;;;;;5104712;28;20039;-52
2022/05/06 10:56:00;;;;;;;11.77;9.30;;;;;;;;;;5107264;28;20039;-54
2022/05/06 10:58:27;;;;;;;12.15;9.02;;;;;;;;;;5107696;28;20031;-52
2022/05/06 11:00:59;;;;;;;16.90;9.50;;;;;;;;;;5108596;28;20039;-52
2022/05/06 11:03:25;;;;;;;14.85;9.65;;;;;;;;;;5108320;28;20028;-54
2022/05/06 11:05:52;;;;;;;13.38;8.20;;;;;;;;;;5108017;28;20045;-54
2022/05/06 11:08:21;;;;;;;14.18;8.52;;;;;;;;;;5108009;28;20088;-54
2022/05/06 11:10:49;;;;;;;13.88;8.57;;;;;;;;;;5107639;28;20024;-54
2022/05/06 11:13:18;;;;;;;18.88;9.70;;;;;;;;;;5105031;28;20125;-52
2022/05/06 11:15:45;;;;;;;14.07;9.00;;;;;;;;;;5107303;28;20896;-54
2022/05/06 11:18:11;;;;;;;14.77;8.68;;;;;;;;;;5109607;28;20112;-52
2022/05/06 11:20:38;;;;;;;13.10;8.85;;;;;;;;;;5111039;28;20110;-54
2022/05/06 11:23:08;;;;;;;11.73;8.63;;;;;;;;;;5116115;28;20028;-55
2022/05/06 11:25:34;;;;;;;;;;;;;;;;;;5111278;28;20453;-54
2022/05/06 11:28:02;;;;;;;16.08;9.20;;;;;;;;;;5112753;28;19950;-54
2022/05/06 11:30:29;;;;;;;13.27;8.18;;;;;;;;;;5111026;28;20035;-55
2022/05/06 11:32:59;;;;;;;12.55;7.55;;;;;;;;;;5112602;28;20546;-57
2022/05/06 11:35:30;;;;;;;12.65;8.10;;;;;;;;;;5112520;28;20028;-54
2022/05/06 11:37:57;;;;;;;9.85;7.97;;;;;;;;;;5112345;28;20106;-51
2022/05/06 11:42:56;;;;;;;17.83;7.38;;;;;;;;;;5093642;28;21168;-51
2022/05/06 11:48:08;;;;;;;16.35;7.05;;;;;;;;;;5111553;28;20068;-54
2022/05/06 11:50:35;;;;;;;15.75;7.10;;;;;;;;;;5111183;28;20023;-54
2022/05/06 11:53:04;;;;;;;17.75;8.18;;;;;;;;;;5110141;28;20024;-54
2022/05/06 11:55:30;;;;;;;19.83;7.00;;;;;;;;;;5110415;28;20504;-52
2022/05/06 11:57:57;;;;;;;19.38;7.50;;;;;;;;;;5108324;28;20189;-54
2022/05/06 12:00:23;;;;;;;20.15;7.20;;;;;;;;;;5108853;28;20099;-53
2022/05/06 12:02:50;;;;;;;17.63;6.82;;;;;;;;;;5108941;28;20028;-55
2022/05/06 12:05:16;;;;;;;16.20;6.53;;;;;;;;;;5110205;28;20500;-55
2022/05/06 12:07:47;;;;;;;16.40;6.97;;;;;;;;;;5111081;28;20034;-54
2022/05/06 12:10:13;;;;;;;;;;;;;;;;;;5109176;28;20110;-54
2022/05/06 12:12:57;;;;;;;13.95;6.28;;;;;;;;;;5111010;28;20053;-53
2022/05/06 12:15:30;;;;;;;10.88;6.25;;;;;;;;;;5109706;28;20016;-54
2022/05/06 12:18:02;;;;;;;12.27;5.82;;;;;;;;;;5108706;28;20023;-53
2022/05/06 12:20:36;;;;;;;11.30;6.00;;;;;;;;;;5096494;28;20181;-49
2022/05/06 12:23:02;;;;;;;10.80;5.72;;;;;;;;;;5092281;28;20466;-52
2022/05/06 12:25:29;;;;;;;17.50;6.18;;;;;;;;;;5111396;28;20114;-52
2022/05/06 12:28:10;;;;;;;13.18;5.70;;;;;;;;;;5111393;28;20028;-52
2022/05/06 12:30:38;;;;;;;14.25;5.53;;;;;;;;;;5110271;28;20027;-50
2022/05/06 12:33:05;;;;;;;8.45;4.88;;;;;;;;;;5109440;28;20096;-51
2022/05/06 12:35:32;;;;;;;10.80;5.00;;;;;;;;;;5110244;28;20061;-53
2022/05/06 12:38:00;;;;;;;14.20;5.22;;;;;;;;;;5110734;28;20051;-50
2022/05/06 12:40:32;;;;;;;10.00;5.78;;;;;;;;;;5110075;28;20054;-53
2022/05/06 12:43:05;;;;;;;12.68;4.93;;;;;;;;;;5110802;28;20103;-54
2022/05/06 12:45:31;;;;;;;11.13;5.20;;;;;;;;;;5103770;28;20115;-54
2022/05/06 12:50:42;;;;;;;16.98;4.88;;;;;;;;;;5111359;28;20047;-52
2022/05/06 12:53:08;;;;;;;7.47;5.05;;;;;;;;;;5110191;28;20473;-53
2022/05/06 12:55:34;;;;;;;9.77;4.70;;;;;;;;;;5111006;28;20466;-54
2022/05/06 12:58:00;;;;;;;10.43;4.45;;;;;;;;;;5110836;28;20039;-53
2022/05/06 13:00:26;;;;;;;7.28;3.95;;;;;;;;;;5107568;28;20534;-54
2022/05/06 13:02:52;;;;;;;10.23;3.67;;;;;;;;;;5103095;28;20102;-51
2022/05/06 13:05:19;;;;;;;12.85;3.78;;;;;;;;;;5105536;28;20127;-52
2022/05/06 13:07:45;;;;;;;16.50;4.00;;;;;;;;;;5105503;28;20039;-54
2022/05/06 13:10:11;;;;;;;10.68;4.13;;;;;;;;;;5110857;28;20023;-53
2022/05/06 13:12:37;;;;;;;14.30;4.63;;;;;;;;;;5110721;27;20091;-52
2022/05/06 13:15:04;;;;;;;17.52;3.95;;;;;;;;;;5110066;28;20019;-53
2022/05/06 13:17:30;;;;;;;16.13;4.65;;;;;;;;;;5109697;28;20065;-52
2022/05/06 13:19:56;;;;;;;16.27;5.05;;;;;;;;;;5110591;28;20583;-51
2022/05/06 13:22:22;;;;;;;8.82;4.20;;;;;;;;;;5110196;28;20032;-54
2022/05/06 13:24:48;;;;;;;14.60;5.70;;;;;;;;;;5106039;28;20509;-51
2022/05/06 13:27:14;;;;;;;11.02;5.97;;;;;;;;;;5109222;28;20130;-52
2022/05/06 13:29:41;;;;;;;7.78;4.68;;;;;;;;;;5105965;28;20499;-51
2022/05/06 13:32:07;;;;;;;19.95;5.90;;;;;;;;;;5109790;28;20051;-52
2022/05/06 13:34:33;;;;;;;11.40;5.10;;;;;;;;;;5109731;28;20035;-49
2022/05/06 13:37:03;;;;;;;10.70;5.63;;;;;;;;;;5109988;28;20111;-54
2022/05/06 13:39:31;;;;;;;15.93;6.28;;;;;;;;;;5107249;28;20031;-52
2022/05/06 13:41:57;;;;;;;13.05;6.72;;;;;;;;;;5108872;28;20741;-55
2022/05/06 13:44:23;;;;;;;10.60;6.47;;;;;;;;;;5108059;28;20541;-53
2022/05/06 13:46:51;;;;;;;16.15;7.72;;;;;;;;;;5108609;28;20050;-51
2022/05/06 13:49:18;;;;;;;12.48;7.07;;;;;;;;;;5108492;28;20080;-52
2022/05/06 13:51:44;;;;;;;10.70;7.75;;;;;;;;;;5104297;27;20500;-51
2022/05/06 13:54:10;;;;;;;13.82;7.80;;;;;;;;;;5100665;28;20031;-54
2022/05/06 13:59:21;;;;;;;10.20;6.88;;;;;;;;;;5098297;28;20038;-51
2022/05/06 14:01:49;;;;;;;10.38;7.05;;;;;;;;;;5117022;27;20449;-51
2022/05/06 14:04:15;;;;;;;12.07;7.18;;;;;;;;;;5121324;27;20107;-53
2022/05/06 14:06:41;;;;;;;10.93;7.35;;;;;;;;;;5106767;27;20040;-51
2022/05/06 14:09:07;;;;;;;14.25;6.70;;;;;;;;;;5104618;27;20035;-52
2022/05/06 14:11:33;;;;;;;16.90;6.97;;;;;;;;;;5106685;28;20106;-53
2022/05/06 14:14:00;;;;;;;15.10;6.82;;;;;;;;;;5088992;28;20028;-52
2022/05/06 14:16:26;;;;;;;13.48;6.28;;;;;;;;;;5107624;28;20110;-52
2022/05/06 14:18:53;;;;;;;15.25;6.43;;;;;;;;;;5108593;28;20026;-51
2022/05/06 14:21:19;;;;;;;14.23;6.60;;;;;;;;;;5108100;28;20035;-54
2022/05/06 14:23:45;;;;;;;16.40;6.38;;;;;;;;;;5107640;28;20534;-54
2022/05/06 14:26:12;;;;;;;13.43;6.10;;;;;;;;;;5107547;28;20055;-54
2022/05/06 14:28:39;;;;;;;13.02;6.72;;;;;;;;;;5087525;28;20430;-51
2022/05/06 14:31:05;;;;;;;9.93;5.85;;;;;;;;;;5102855;28;20789;-54
2022/05/06 14:33:31;;;;;;;10.88;5.85;;;;;;;;;;5107849;28;20027;-55
2022/05/06 14:35:57;;;;;;;9.32;6.43;;;;;;;;;;5108125;28;20384;-51
2022/05/06 14:38:23;;;;;;;12.43;5.40;;;;;;;;;;5101705;28;20537;-51
2022/05/06 14:40:49;;;;;;;12.10;5.35;;;;;;;;;;5100012;28;20936;-55
2022/05/06 14:43:15;;;;;;;11.07;5.97;;;;;;;;;;5109353;28;20020;-53
2022/05/06 14:45:41;;;;;;;11.15;5.55;;;;;;;;;;5108590;28;20031;-51
2022/05/06 14:48:07;;;;;;;13.13;5.13;;;;;;;;;;5108694;28;20028;-55
2022/05/06 14:50:33;;;;;;;11.60;5.95;;;;;;;;;;5108748;28;20482;-54
2022/05/06 14:52:59;;;;;;;13.18;5.72;;;;;;;;;;5102733;28;20443;-53
2022/05/06 14:55:26;;;;;;;13.63;5.80;;;;;;;;;;5102831;28;20031;-54
2022/05/06 14:57:52;;;;;;;11.80;7.22;;;;;;;;;;5108183;28;20083;-50
2022/05/06 15:00:19;;;;;;;16.70;8.73;;;;;;;;;;5108454;28;20024;-50
2022/05/06 15:02:47;;;;;;;19.73;7.68;;;;;;;;;;5099932;28;20031;-54
2022/05/06 15:05:13;;;;;;;15.38;6.90;;;;;;;;;;5090190;28;20036;-55
2022/05/06 15:07:39;;;;;;;15.38;6.25;;;;;;;;;;5105556;28;20135;-53
2022/05/06 15:10:05;;;;;;;16.10;6.95;;;;;;;;;;5088537;28;20032;-54
2022/05/06 15:12:31;;;;;;;11.90;6.45;;;;;;;;;;5103939;28;20023;-55
2022/05/06 15:14:57;;;;;;;19.13;8.07;;;;;;;;;;5107217;28;20024;-54
2022/05/06 15:17:24;;;;;;;15.75;6.88;;;;;;;;;;5106772;28;20028;-54
2022/05/06 15:19:51;;;;;;;11.55;6.80;;;;;;;;;;5106669;28;20028;-51
2022/05/06 15:22:17;;;;;;;11.52;6.68;;;;;;;;;;5102246;28;20023;-54
2022/05/06 15:24:44;;;;;;;13.40;7.13;;;;;;;;;;5107602;28;20097;-54